createdAt,value
2023-03-22T00:00:06.888Z,81.50
2023-03-22T00:03:10.593Z,80.87
2023-03-22T00:06:13.088Z,80.85
2023-03-22T00:09:15.881Z,81.50
2023-03-22T00:12:18.871Z,81.53
2023-03-22T00:15:21.139Z,81.63
2023-03-22T00:18:23.894Z,81.41
2023-03-22T00:21:26.109Z,81.84
2023-03-22T00:24:28.165Z,82.05
2023-03-22T00:27:30.627Z,82.31
2023-03-22T00:30:32.776Z,82.98
2023-03-22T00:33:35.517Z,83.15
2023-03-22T00:36:38.061Z,83.16
2023-03-22T00:39:40.326Z,83.09
2023-03-22T00:42:42.461Z,83.35
2023-03-22T00:45:44.683Z,83.25
2023-03-22T00:48:47.807Z,83.53
2023-03-22T00:51:49.868Z,84.32
2023-03-22T00:54:52.082Z,83.67
2023-03-22T00:57:54.179Z,83.65
2023-03-22T01:00:56.221Z,83.97
2023-03-22T01:03:58.500Z,83.93
2023-03-22T01:07:02.086Z,84.25
2023-03-22T01:10:06.356Z,84.56
2023-03-22T01:13:09.235Z,84.48
2023-03-22T01:16:11.458Z,84.91
2023-03-22T01:19:13.786Z,84.98
2023-03-22T01:22:15.899Z,84.76
2023-03-22T01:25:18.253Z,84.87
2023-03-22T01:28:20.415Z,85.61
2023-03-22T01:31:22.529Z,85.29
2023-03-22T01:34:26.660Z,85.47
2023-03-22T01:37:28.798Z,85.70
2023-03-22T01:40:31.070Z,85.95
2023-03-22T01:43:33.506Z,86.18
2023-03-22T01:46:35.711Z,86.61
2023-03-22T01:49:39.287Z,86.75
2023-03-22T01:52:41.696Z,86.17
2023-03-22T01:55:45.613Z,85.99
2023-03-22T01:58:48.998Z,86.30
2023-03-22T02:01:51.237Z,86.13
2023-03-22T02:04:58.132Z,85.85
2023-03-22T02:08:01.179Z,85.72
2023-03-22T02:11:04.572Z,85.74
2023-03-22T02:14:54.207Z,85.33
2023-03-22T02:18:30.010Z,84.86
2023-03-22T02:22:04.826Z,84.35
2023-03-22T02:25:54.637Z,84.02
2023-03-22T02:29:07.551Z,83.82
2023-03-22T02:32:28.189Z,84.46
2023-03-22T02:35:48.516Z,84.18
2023-03-22T02:39:11.789Z,84.35
2023-03-22T02:42:26.004Z,84.51
2023-03-22T02:45:54.674Z,84.04
2023-03-22T02:49:33.994Z,84.06
2023-03-22T02:52:44.659Z,83.98
2023-03-22T02:55:46.721Z,83.76
2023-03-22T02:58:53.423Z,83.48
2023-03-22T03:01:59.624Z,83.22
2023-03-22T03:05:02.991Z,83.80
2023-03-22T03:08:06.901Z,84.17
2023-03-22T03:11:10.252Z,84.08
2023-03-22T03:14:27.706Z,83.93
2023-03-22T03:17:35.660Z,84.24
2023-03-22T03:20:52.936Z,84.28
2023-03-22T03:24:03.616Z,84.15
2023-03-22T03:27:31.179Z,84.78
2023-03-22T03:30:43.373Z,85.00
2023-03-22T03:34:12.142Z,85.03
2023-03-22T03:37:19.974Z,84.74
2023-03-22T03:40:54.488Z,84.86
2023-03-22T03:43:58.677Z,84.77
2023-03-22T03:47:02.966Z,84.61
2023-03-22T03:50:06.453Z,84.64
2023-03-22T03:53:09.972Z,84.43
2023-03-22T03:56:12.146Z,84.21
2023-03-22T03:59:18.594Z,83.71
2023-03-22T04:02:20.870Z,83.50
2023-03-22T04:05:23.282Z,83.65
2023-03-22T04:08:26.054Z,83.86
2023-03-22T04:11:28.112Z,83.91
2023-03-22T04:14:30.535Z,83.69
2023-03-22T04:17:33.063Z,83.51
2023-03-22T04:20:35.046Z,83.50
2023-03-22T04:23:37.327Z,83.46
2023-03-22T04:26:39.512Z,83.57
2023-03-22T04:29:41.642Z,83.50
2023-03-22T04:32:43.734Z,83.73
2023-03-22T04:35:46.508Z,83.92
2023-03-22T04:38:49.325Z,84.24
2023-03-22T04:41:51.450Z,84.24
2023-03-22T04:44:53.437Z,84.28
2023-03-22T04:47:56.184Z,84.93
2023-03-22T04:50:58.482Z,85.05
2023-03-22T04:54:00.712Z,85.05
2023-03-22T04:57:02.798Z,85.09
2023-03-22T05:00:08.531Z,85.14
2023-03-22T05:03:10.735Z,85.21
2023-03-22T05:06:13.653Z,85.05
2023-03-22T05:09:16.271Z,85.65
2023-03-22T05:12:18.403Z,85.33
2023-03-22T05:15:20.492Z,85.94
2023-03-22T05:18:26.953Z,86.08
2023-03-22T05:21:36.743Z,85.51
2023-03-22T05:24:38.949Z,84.98
2023-03-22T05:27:41.006Z,84.89
2023-03-22T05:30:44.143Z,84.29
2023-03-22T05:33:46.795Z,84.66
2023-03-22T05:36:51.651Z,84.16
2023-03-22T05:39:56.229Z,83.92
2023-03-22T05:42:58.713Z,83.99
2023-03-22T05:46:00.754Z,84.18
2023-03-22T05:49:02.774Z,84.28
2023-03-22T05:52:06.152Z,83.90
2023-03-22T05:55:08.752Z,83.87
2023-03-22T05:58:11.028Z,83.86
2023-03-22T06:01:16.550Z,83.67
2023-03-22T06:04:18.889Z,83.66
2023-03-22T06:07:20.924Z,83.53
2023-03-22T06:10:24.327Z,83.17
2023-03-22T06:13:26.925Z,82.93
2023-03-22T06:16:29.036Z,82.68
2023-03-22T06:19:31.428Z,82.53
2023-03-22T06:22:33.738Z,81.88
2023-03-22T06:25:36.186Z,81.07
2023-03-22T06:28:38.350Z,80.58
2023-03-22T06:31:40.764Z,79.77
2023-03-22T06:34:42.946Z,79.21
2023-03-22T06:37:45.014Z,79.26
2023-03-22T06:40:47.213Z,78.13
2023-03-22T06:43:49.267Z,78.62
2023-03-22T06:46:51.483Z,78.69
2023-03-22T06:49:53.786Z,78.14
2023-03-22T06:52:56.410Z,77.79
2023-03-22T06:55:58.404Z,76.78
2023-03-22T06:59:00.463Z,75.53
2023-03-22T07:02:02.966Z,75.14
2023-03-22T07:05:05.480Z,74.22
2023-03-22T07:08:07.834Z,73.42
2023-03-22T07:11:09.870Z,76.28
2023-03-22T07:14:11.955Z,76.88
2023-03-22T07:17:14.341Z,76.14
2023-03-22T07:20:16.610Z,75.31
2023-03-22T07:23:18.934Z,74.37
2023-03-22T07:26:21.258Z,72.31
2023-03-22T07:29:23.987Z,72.83
2023-03-22T07:32:26.161Z,72.38
2023-03-22T07:35:28.315Z,71.46
2023-03-22T07:38:31.081Z,70.06
2023-03-22T07:41:33.330Z,70.22
2023-03-22T07:44:36.205Z,68.80
2023-03-22T07:47:41.335Z,66.47
2023-03-22T07:50:43.696Z,65.51
2023-03-22T07:53:46.135Z,65.43
2023-03-22T07:56:48.499Z,63.91
2023-03-22T07:59:50.676Z,64.12
2023-03-22T08:02:53.066Z,62.71
2023-03-22T08:05:58.721Z,62.51
2023-03-22T08:09:01.351Z,60.58
2023-03-22T08:12:03.849Z,60.88
2023-03-22T08:15:06.436Z,59.73
2023-03-22T08:18:08.880Z,60.36
2023-03-22T08:21:11.382Z,58.97
2023-03-22T08:24:16.126Z,56.97
2023-03-22T08:27:19.263Z,56.21
2023-03-22T08:30:22.541Z,55.28
2023-03-22T08:33:25.488Z,54.03
2023-03-22T08:36:27.720Z,52.09
2023-03-22T08:39:29.758Z,50.91
2023-03-22T08:42:32.120Z,51.09
2023-03-22T08:45:34.739Z,49.17
2023-03-22T08:48:38.665Z,49.85
2023-03-22T08:51:41.343Z,48.85
2023-03-22T08:54:43.650Z,47.46
2023-03-22T08:57:50.317Z,47.09
2023-03-22T09:00:52.588Z,45.52
2023-03-22T09:03:54.822Z,45.00
2023-03-22T09:06:57.033Z,42.90
2023-03-22T09:09:59.235Z,41.31
2023-03-22T09:13:01.391Z,44.17
2023-03-22T09:16:04.465Z,43.23
2023-03-22T09:19:06.889Z,43.17
2023-03-22T09:22:09.493Z,43.09
2023-03-22T09:25:13.096Z,44.49
2023-03-22T09:28:16.676Z,43.86
2023-03-22T09:31:20.522Z,43.40
2023-03-22T09:34:22.977Z,41.33
2023-03-22T09:37:30.379Z,40.34
2023-03-22T09:40:35.264Z,40.75
2023-03-22T09:43:42.536Z,39.19
2023-03-22T09:46:48.175Z,39.14
2023-03-22T09:50:01.419Z,38.69
2023-03-22T09:53:03.585Z,38.58
2023-03-22T09:56:18.002Z,39.35
2023-03-22T09:59:40.146Z,38.18
2023-03-22T10:02:54.662Z,38.02
2023-03-22T10:06:21.052Z,37.72
2023-03-22T10:09:37.628Z,37.26
2023-03-22T10:12:40.024Z,37.65
2023-03-22T10:15:48.541Z,36.94
2023-03-22T10:18:53.934Z,38.96
2023-03-22T10:22:00.145Z,38.47
2023-03-22T10:25:03.294Z,38.57
2023-03-22T10:28:24.047Z,38.36
2023-03-22T10:31:28.111Z,37.47
2023-03-22T10:34:33.777Z,36.89
2023-03-22T10:37:37.754Z,35.98
2023-03-22T10:40:41.134Z,36.41
2023-03-22T10:43:46.205Z,35.79
2023-03-22T10:46:51.617Z,34.80
2023-03-22T10:49:56.312Z,32.77
2023-03-22T10:53:07.102Z,33.07
2023-03-22T10:56:15.903Z,31.22
2023-03-22T10:59:51.787Z,31.19
2023-03-22T11:02:59.736Z,31.30
2023-03-22T11:06:18.244Z,32.43
2023-03-22T11:09:23.785Z,32.17
2023-03-22T11:12:25.974Z,31.61
2023-03-22T11:15:31.869Z,31.30
2023-03-22T11:18:35.183Z,31.19
2023-03-22T11:21:37.397Z,30.76
2023-03-22T11:24:39.545Z,31.63
2023-03-22T11:27:57.944Z,30.85
2023-03-22T11:31:09.956Z,30.93
2023-03-22T11:34:18.490Z,30.72
2023-03-22T11:37:22.442Z,31.44
2023-03-22T11:40:30.910Z,30.96
2023-03-22T11:43:37.414Z,33.02
2023-03-22T11:46:40.353Z,30.78
2023-03-22T11:49:51.267Z,30.10
2023-03-22T11:52:54.194Z,29.57
2023-03-22T11:55:57.974Z,29.64
2023-03-22T11:59:08.936Z,29.96
2023-03-22T12:02:49.867Z,29.23
2023-03-22T12:05:53.241Z,29.81
2023-03-22T12:09:11.037Z,32.27
2023-03-22T12:12:19.397Z,32.27
2023-03-22T12:15:24.740Z,31.18
2023-03-22T12:18:36.497Z,31.60
2023-03-22T12:21:38.981Z,34.27
2023-03-22T12:24:42.913Z,35.29
2023-03-22T12:27:48.794Z,33.90
2023-03-22T12:30:54.627Z,31.86
2023-03-22T12:34:03.311Z,33.29
2023-03-22T12:37:09.354Z,31.60
2023-03-22T12:40:28.655Z,33.77
2023-03-22T12:43:33.543Z,32.14
2023-03-22T12:46:45.215Z,29.70
2023-03-22T12:49:49.958Z,29.67
2023-03-22T12:52:56.657Z,29.64
2023-03-22T12:56:01.199Z,30.85
2023-03-22T12:59:06.674Z,30.63
2023-03-22T13:02:19.928Z,29.29
2023-03-22T13:05:27.199Z,29.03
2023-03-22T13:09:24.379Z,30.71
2023-03-22T13:12:30.508Z,29.51
2023-03-22T13:15:42.081Z,30.94
2023-03-22T13:18:45.335Z,29.12
2023-03-22T13:21:49.456Z,27.65
2023-03-22T13:25:12.636Z,29.53
2023-03-22T13:28:37.283Z,27.06
2023-03-22T13:31:44.576Z,26.28
2023-03-22T13:34:52.580Z,27.21
2023-03-22T13:38:03.061Z,27.39
2023-03-22T13:41:14.194Z,27.58
2023-03-22T13:44:26.510Z,27.57
2023-03-22T13:47:43.755Z,27.07
2023-03-22T13:50:46.185Z,26.60
2023-03-22T13:53:57.243Z,28.95
2023-03-22T13:57:01.634Z,29.85
2023-03-22T14:00:33.617Z,29.13
2023-03-22T14:03:40.981Z,28.81
2023-03-22T14:07:24.391Z,29.85
2023-03-22T14:10:33.093Z,28.15
2023-03-22T14:13:42.374Z,27.92
2023-03-22T14:16:50.901Z,27.90
2023-03-22T14:19:53.512Z,28.53
